Time;durP1;ratioP1;P1;durP2;ratioP2;P2;SDS_P1;SDS_P2;PMS_P1;PMS_P2;Temp;Humidity;BMP_temperature;BMP_pressure;BME280_temperature;BME280_humidity;BME280_pressure;Samples;Min_cycle;Max_cycle;Signal;HPM_P1;HPM_P2
2023/01/17 00:02:23;;;;;;;32.10;26.00;;;;;;;3.41;76.17;97612.51;110852;1258;21980;-82
2023/01/17 00:10:26;;;;;;;26.40;23.60;;;;;;;3.39;76.30;97608.27;110954;1258;23750;-80
2023/01/17 00:12:58;;;;;;;25.80;23.00;;;;;;;3.37;76.31;97608.38;111044;1258;22063;-80
2023/01/17 00:15:30;;;;;;;23.90;21.30;;;;;;;3.35;76.35;97611.09;110951;1258;23709;-79
2023/01/17 00:17:58;;;;;;;23.80;21.20;;;;;;;3.30;76.39;97606.67;110961;1258;22005;-80
2023/01/17 00:26:18;;;;;;;24.60;22.00;;;;;;;3.24;76.61;97598.92;110803;1258;22731;-81
2023/01/17 01:33:52;;;;;;;29.00;25.60;;;;;;;3.05;77.19;97532.23;110612;1262;21963;-80
2023/01/17 01:36:20;;;;;;;28.50;25.40;;;;;;;3.05;77.30;97530.31;110657;1262;22364;-79
2023/01/17 01:38:49;;;;;;;29.70;26.60;;;;;;;3.07;77.26;97523.48;110486;1262;22987;-82
2023/01/17 01:41:16;;;;;;;26.70;23.80;;;;;;;3.11;77.30;97518.86;110682;1262;21988;-81
2023/01/17 01:43:53;;;;;;;28.40;24.40;;;;;;;3.12;77.26;97515.86;110592;1262;21981;-81
2023/01/17 01:46:40;;;;;;;27.40;24.40;;;;;;;3.12;77.32;97516.87;110480;1262;23698;-80
2023/01/17 01:49:20;;;;;;;27.40;24.60;;;;;;;3.13;77.23;97511.52;110631;1262;21979;-79
2023/01/17 01:51:55;;;;;;;26.90;24.00;;;;;;;3.12;77.25;97509.02;110600;1257;21973;-81
2023/01/17 01:54:32;;;;;;;27.50;24.70;;;;;;;3.10;77.32;97510.64;110747;1257;22538;-80
2023/01/17 01:57:03;;;;;;;27.40;24.40;;;;;;;3.06;77.29;97510.33;110723;1257;22732;-80
2023/01/17 01:59:33;;;;;;;29.20;24.90;;;;;;;3.03;77.24;97506.39;110715;1257;21961;-79
2023/01/17 02:02:01;;;;;;;27.00;24.10;;;;;;;2.98;77.20;97509.36;110905;1257;22991;-79
2023/01/17 02:04:28;;;;;;;28.90;25.80;;;;;;;2.96;77.22;97513.61;111010;1257;21965;-79
2023/01/17 02:07:14;;;;;;;30.70;27.40;;;;;;;2.94;77.26;97515.61;111025;1257;22026;-80
2023/01/17 02:09:42;;;;;;;27.00;24.10;;;;;;;2.89;77.29;97514.80;110776;1257;22663;-78
2023/01/17 02:12:11;;;;;;;28.60;25.50;;;;;;;2.88;77.21;97514.90;110990;1244;22002;-81
2023/01/17 02:14:39;;;;;;;30.10;27.10;;;;;;;2.86;77.33;97516.17;110909;1257;22731;-81
2023/01/17 02:17:39;;;;;;;33.10;29.70;;;;;;;2.86;77.45;97516.51;111025;1257;23018;-81
2023/01/17 02:20:44;;;;;;;34.70;31.30;;;;;;;2.83;77.56;97515.33;111012;1257;23714;-79
2023/01/17 02:24:00;;;;;;;35.90;32.20;;;;;;;2.79;77.62;97512.77;111076;1257;21970;-82
2023/01/17 02:26:59;;;;;;;37.40;33.50;;;;;;;2.76;77.63;97511.21;110989;1257;21970;-79
2023/01/17 02:30:25;;;;;;;37.50;33.70;;;;;;;2.74;77.68;97509.07;111038;1244;21998;-80
2023/01/17 02:33:02;;;;;;;39.00;34.90;;;;;;;2.73;77.79;97506.54;109790;1271;22253;-82
2023/01/17 02:36:03;;;;;;;39.20;35.10;;;;;;;2.74;77.71;97505.97;109728;1271;22118;-79
2023/01/17 02:39:09;;;;;;;37.20;33.50;;;;;;;2.73;77.70;97511.52;109630;1271;21975;-79
2023/01/17 02:41:42;;;;;;;37.70;33.70;;;;;;;2.69;77.65;97512.57;109056;1276;23077;-81
2023/01/17 02:44:15;;;;;;;36.30;32.60;;;;;;;2.68;77.72;97513.65;109026;1276;23891;-79
2023/01/17 02:46:55;;;;;;;37.40;33.60;;;;;;;2.69;77.69;97513.79;109039;1276;23032;-79
2023/01/17 02:49:28;;;;;;;34.60;30.90;;;;;;;2.68;77.58;97512.33;109090;1276;21975;-80
2023/01/17 02:52:45;;;;;;;34.90;31.20;;;;;;;2.66;77.59;97513.27;108944;1276;22005;-79
2023/01/17 02:55:34;;;;;;;31.90;28.50;;;;;;;2.61;77.58;97506.64;108429;1286;21979;-80
2023/01/17 02:58:40;;;;;;;33.70;30.20;;;;;;;2.59;77.60;97503.98;108449;1287;23609;-80
2023/01/17 03:01:17;;;;;;;35.40;31.50;;;;;;;2.58;77.67;97502.17;108448;1287;22898;-81
2023/01/17 03:04:10;;;;;;;38.80;33.80;;;;;;;2.56;77.52;97498.47;108230;1287;22009;-81
2023/01/17 03:06:46;;;;;;;44.60;39.70;;;;;;;2.53;77.59;97492.95;108308;1286;22024;-82
2023/01/17 03:09:16;;;;;;;41.90;37.40;;;;;;;2.50;77.52;97490.69;108489;1276;23837;-81
2023/01/17 03:11:44;;;;;;;38.40;33.40;;;;;;;2.48;77.61;97487.58;109100;1276;23643;-80
2023/01/17 03:14:12;;;;;;;37.60;33.70;;;;;;;2.44;77.50;97481.59;109010;1276;21993;-80
2023/01/17 03:16:40;;;;;;;40.10;35.90;;;;;;;2.40;77.55;97478.17;109774;1270;21976;-81
2023/01/17 03:19:08;;;;;;;40.40;36.20;;;;;;;2.37;77.58;97479.21;109764;1269;22344;-80
2023/01/17 03:21:36;;;;;;;38.90;35.00;;;;;;;2.33;77.71;97485.02;109793;1270;22012;-80
2023/01/17 03:24:04;;;;;;;36.20;32.40;;;;;;;2.32;77.67;97490.76;109786;1270;23733;-79
2023/01/17 03:26:32;;;;;;;41.00;35.50;;;;;;;2.29;77.60;97491.23;109716;1270;23829;-79
2023/01/17 03:29:01;;;;;;;33.00;29.70;;;;;;;2.29;77.60;97490.77;109751;1270;21984;-80
2023/01/17 03:31:28;;;;;;;34.00;30.30;;;;;;;2.28;77.64;97483.05;109669;1257;22064;-81
2023/01/17 03:33:56;;;;;;;33.20;28.80;;;;;;;2.28;77.65;97484.61;110974;1257;21961;-82
2023/01/17 03:36:24;;;;;;;31.80;28.50;;;;;;;2.27;77.69;97480.56;111105;1257;23808;-82
2023/01/17 03:38:51;;;;;;;31.20;27.90;;;;;;;2.27;77.76;97475.59;111002;1257;21958;-81
2023/01/17 03:41:19;;;;;;;29.10;25.60;;;;;;;2.25;77.64;97468.45;110849;1255;23052;-81
2023/01/17 03:43:47;;;;;;;26.80;24.00;;;;;;;2.23;77.73;97461.05;110891;1257;21959;-80
2023/01/17 03:46:27;;;;;;;26.20;23.50;;;;;;;2.20;77.78;97460.32;110861;1257;23584;-79
2023/01/17 03:48:55;;;;;;;28.00;25.00;;;;;;;2.18;77.82;97462.45;110947;1257;23506;-79
2023/01/17 03:51:23;;;;;;;31.40;25.40;;;;;;;2.17;77.81;97462.17;110967;1257;22037;-80
2023/01/17 03:53:50;;;;;;;27.30;24.30;;;;;;;2.15;77.89;97458.98;111087;1257;21971;-78
2023/01/17 03:56:18;;;;;;;27.00;24.00;;;;;;;2.13;77.82;97462.02;110946;1257;21982;-80
2023/01/17 03:58:46;;;;;;;28.00;25.00;;;;;;;2.12;78.02;97454.16;110836;1257;21996;-81
2023/01/17 04:01:14;;;;;;;26.10;23.20;;;;;;;2.12;78.02;97457.97;110985;1257;21982;-81
2023/01/17 04:03:42;;;;;;;24.70;21.80;;;;;;;2.11;77.89;97469.34;111092;1257;23807;-81
2023/01/17 04:06:09;;;;;;;22.70;20.40;;;;;;;2.08;77.96;97469.14;110808;1257;22713;-81
2023/01/17 04:08:37;;;;;;;24.30;21.80;;;;;;;2.05;77.95;97463.11;111065;1257;22042;-80
2023/01/17 04:11:05;;;;;;;23.60;21.10;;;;;;;2.04;77.97;97460.59;111089;1257;23011;-80
2023/01/17 04:13:32;;;;;;;22.10;19.50;;;;;;;2.03;78.06;97463.03;110634;1257;21974;-79
2023/01/17 04:16:00;;;;;;;21.10;18.90;;;;;;;2.01;78.06;97466.04;110698;1255;23084;-80
2023/01/17 04:18:28;;;;;;;22.30;19.90;;;;;;;2.00;78.08;97462.15;110845;1257;21969;-81
2023/01/17 04:20:56;;;;;;;22.10;19.60;;;;;;;2.02;78.16;97462.06;111056;1257;21971;-80
2023/01/17 04:23:23;;;;;;;20.80;18.80;;;;;;;2.02;78.04;97460.34;111046;1257;22175;-80
2023/01/17 04:25:51;;;;;;;21.20;18.90;;;;;;;2.01;77.95;97461.60;111197;1257;22708;-80
2023/01/17 04:28:18;;;;;;;19.90;17.80;;;;;;;1.99;77.98;97464.30;110987;1257;23062;-80
2023/01/17 04:30:46;;;;;;;19.30;17.30;;;;;;;1.97;78.08;97468.49;111159;1257;22599;-81
2023/01/17 04:33:14;;;;;;;26.40;22.70;;;;;;;1.96;78.11;97471.09;111113;1257;22215;-82
2023/01/17 04:35:42;;;;;;;23.90;21.50;;;;;;;1.96;78.17;97465.23;111081;1257;21967;-81
2023/01/17 04:38:09;;;;;;;25.10;22.50;;;;;;;1.96;78.08;97461.16;111126;1256;21964;-80
2023/01/17 04:40:37;;;;;;;26.90;23.00;;;;;;;1.94;77.99;97462.42;110752;1257;22755;-81
2023/01/17 04:43:05;;;;;;;29.00;26.20;;;;;;;1.95;78.01;97471.98;111031;1257;21957;-82
2023/01/17 04:45:32;;;;;;;31.10;27.90;;;;;;;1.95;77.96;97472.49;111047;1257;23692;-80
2023/01/17 04:48:05;;;;;;;32.20;28.30;;;;;;;1.95;77.98;97472.31;111040;1257;22970;-79
2023/01/17 04:50:33;;;;;;;39.50;32.00;;;;;;;1.95;77.99;97473.89;111129;1257;21978;-80
2023/01/17 04:53:00;;;;;;;44.20;34.70;;;;;;;1.94;77.93;97479.09;111006;1257;21970;-80
2023/01/17 04:55:28;;;;;;;37.00;26.90;;;;;;;1.92;77.94;97477.29;111012;1257;22681;-81
2023/01/17 04:57:56;;;;;;;30.70;25.50;;;;;;;1.90;77.96;97474.80;110745;1257;23697;-81
2023/01/17 05:00:24;;;;;;;18.00;15.60;;;;;;;1.91;77.99;97480.96;110736;1257;22702;-80
2023/01/17 05:02:52;;;;;;;21.90;17.70;;;;;;;1.91;77.94;97485.55;110994;1257;21963;-81
2023/01/17 05:05:20;;;;;;;25.70;21.50;;;;;;;1.91;78.07;97488.66;110913;1257;23021;-80
2023/01/17 05:07:56;;;;;;;27.00;24.20;;;;;;;1.89;77.93;97493.02;110865;1257;21957;-80
2023/01/17 05:10:25;;;;;;;33.80;30.50;;;;;;;1.90;77.85;97495.05;110964;1257;21963;-77
2023/01/17 05:12:58;;;;;;;29.80;26.50;;;;;;;1.90;77.85;97493.00;110792;1257;21963;-79
2023/01/17 05:15:26;;;;;;;29.30;26.20;;;;;;;1.90;77.80;97490.42;110904;1257;21984;-81
2023/01/17 05:17:55;;;;;;;29.50;26.70;;;;;;;1.89;77.76;97486.34;111028;1257;22482;-80
2023/01/17 05:20:26;;;;;;;30.30;27.40;;;;;;;1.88;77.68;97488.11;110843;1257;21937;-80
2023/01/17 05:22:56;;;;;;;31.80;29.00;;;;;;;1.87;77.63;97491.05;111113;1257;22717;-80
2023/01/17 05:25:27;;;;;;;32.60;29.40;;;;;;;1.86;77.61;97493.54;111048;1257;23685;-81
2023/01/17 05:27:56;;;;;;;26.80;24.40;;;;;;;1.86;77.64;97491.31;110892;1257;23614;-80
2023/01/17 05:30:23;;;;;;;23.70;21.50;;;;;;;1.85;77.61;97488.78;110972;1257;21964;-79
2023/01/17 05:32:54;;;;;;;18.60;16.70;;;;;;;1.85;77.59;97489.13;110938;1257;21965;-80
2023/01/17 05:35:28;;;;;;;16.70;14.60;;;;;;;1.84;77.44;97492.77;111003;1254;21976;-80
2023/01/17 05:37:56;;;;;;;16.10;14.40;;;;;;;1.81;77.46;97491.73;110893;1257;21968;-79
2023/01/17 05:40:28;;;;;;;16.30;14.60;;;;;;;1.77;77.40;97490.34;110954;1257;21979;-80
2023/01/17 05:42:58;;;;;;;14.60;12.50;;;;;;;1.75;77.44;97495.58;110968;1257;21959;-79
2023/01/17 05:45:35;;;;;;;14.80;12.50;;;;;;;1.74;77.48;97493.75;110682;1257;22067;-81
2023/01/17 05:48:03;;;;;;;16.10;14.40;;;;;;;1.74;77.52;97494.30;110805;1257;23619;-81
2023/01/17 05:50:35;;;;;;;17.60;15.30;;;;;;;1.76;77.54;97499.83;110974;1257;21950;-79
2023/01/17 05:53:11;;;;;;;17.00;14.70;;;;;;;1.77;77.47;97501.86;110945;1257;21962;-80
2023/01/17 05:55:40;;;;;;;17.50;14.60;;;;;;;1.77;77.47;97500.83;110883;1257;22352;-80
2023/01/17 05:58:17;;;;;;;17.10;15.30;;;;;;;1.77;77.45;97501.83;110698;1257;21996;-80
2023/01/17 06:00:45;;;;;;;17.50;15.40;;;;;;;1.79;77.43;97508.59;111071;1257;23059;-80
2023/01/17 06:03:14;;;;;;;16.20;14.50;;;;;;;1.81;77.35;97507.14;110818;1257;21952;-79
2023/01/17 06:05:43;;;;;;;13.40;11.50;;;;;;;1.81;77.28;97512.61;110710;1257;21963;-80
2023/01/17 06:08:11;;;;;;;19.90;13.40;;;;;;;1.82;77.19;97515.33;110854;1258;21999;-80
2023/01/17 06:10:39;;;;;;;15.10;12.50;;;;;;;1.83;77.17;97515.11;110812;1257;22033;-81
2023/01/17 06:13:14;;;;;;;16.50;12.50;;;;;;;1.84;77.01;97517.80;110837;1257;23650;-80
2023/01/17 06:15:41;;;;;;;16.80;13.40;;;;;;;1.84;76.95;97516.79;110948;1257;21971;-81
2023/01/17 06:18:13;;;;;;;17.10;13.30;;;;;;;1.85;76.96;97519.64;111051;1257;24379;-80
2023/01/17 06:20:41;;;;;;;15.50;12.30;;;;;;;1.86;76.98;97526.79;110900;1257;23089;-80
2023/01/17 06:23:13;;;;;;;15.30;13.00;;;;;;;1.89;76.90;97534.90;111030;1258;21987;-80
2023/01/17 06:25:45;;;;;;;16.50;13.00;;;;;;;1.90;76.77;97537.93;110970;1258;22170;-81
2023/01/17 06:28:17;;;;;;;12.60;10.90;;;;;;;1.91;76.73;97540.11;110942;1257;21986;-81
2023/01/17 06:30:45;;;;;;;14.10;10.50;;;;;;;1.92;76.61;97544.34;110936;1255;23020;-80
2023/01/17 06:33:13;;;;;;;11.40;10.30;;;;;;;1.93;76.55;97549.09;111041;1257;22247;-81
2023/01/17 06:35:50;;;;;;;12.50;10.00;;;;;;;1.95;76.42;97550.07;110883;1257;21963;-81
2023/01/17 06:38:19;;;;;;;11.60;9.80;;;;;;;1.96;76.38;97554.63;110941;1258;21996;-81
2023/01/17 06:40:47;;;;;;;13.20;10.80;;;;;;;1.98;76.30;97557.28;110866;1257;21991;-80
2023/01/17 06:43:15;;;;;;;13.10;11.80;;;;;;;2.00;76.23;97555.99;110928;1257;24319;-80
2023/01/17 06:45:43;;;;;;;13.20;11.70;;;;;;;2.01;76.13;97557.85;110966;1257;24511;-79
2023/01/17 06:48:11;;;;;;;15.80;11.80;;;;;;;2.00;75.93;97559.79;111048;1257;23724;-80
2023/01/17 06:50:42;;;;;;;15.20;11.80;;;;;;;2.00;75.92;97563.52;111058;1257;23030;-80
2023/01/17 06:53:10;;;;;;;13.30;12.00;;;;;;;2.00;75.94;97565.23;111186;1248;22029;-81
2023/01/17 06:55:39;;;;;;;16.10;12.30;;;;;;;2.01;75.79;97572.56;111035;1257;22711;-80
2023/01/17 06:58:09;;;;;;;21.70;13.30;;;;;;;2.00;75.74;97572.45;111055;1257;23764;-81
2023/01/17 07:00:36;;;;;;;19.90;14.20;;;;;;;2.00;75.68;97576.92;110979;1257;22054;-81
2023/01/17 07:03:18;;;;;;;20.10;15.10;;;;;;;2.00;75.66;97581.02;111005;1257;21968;-83
2023/01/17 07:05:47;;;;;;;17.40;15.60;;;;;;;1.99;75.60;97587.58;111248;1258;23598;-81
2023/01/17 07:08:17;;;;;;;18.60;15.10;;;;;;;2.00;75.46;97592.86;111174;1257;21962;-81
2023/01/17 07:10:46;;;;;;;16.50;14.60;;;;;;;2.01;75.35;97592.10;111202;1257;23054;-87
2023/01/17 07:13:14;;;;;;;17.30;15.40;;;;;;;2.00;75.17;97590.62;111287;1257;24311;-80
2023/01/17 07:15:42;;;;;;;16.80;15.00;;;;;;;2.01;75.26;97589.36;111139;1257;21968;-82
2023/01/17 07:18:10;;;;;;;16.60;14.70;;;;;;;2.02;75.25;97590.52;111007;1258;21995;-82
2023/01/17 07:20:38;;;;;;;17.60;15.80;;;;;;;2.05;75.27;97591.40;110476;1262;21986;-84
2023/01/17 07:23:06;;;;;;;17.10;14.00;;;;;;;2.09;75.23;97594.14;110605;1262;21993;-80
2023/01/17 07:25:34;;;;;;;16.80;13.30;;;;;;;2.11;75.24;97595.92;110603;1262;21983;-78
2023/01/17 07:28:02;;;;;;;16.80;14.30;;;;;;;2.12;75.25;97600.16;110724;1262;21970;-81
2023/01/17 07:30:30;;;;;;;16.70;13.80;;;;;;;2.13;75.08;97603.21;110115;1267;21982;-80
2023/01/17 07:32:58;;;;;;;16.30;12.90;;;;;;;2.17;75.22;97603.39;110183;1267;21975;-81
2023/01/17 07:35:26;;;;;;;17.60;13.80;;;;;;;2.20;74.93;97602.20;110744;1267;22009;-88
2023/01/17 07:37:57;;;;;;;17.00;13.00;;;;;;;2.21;74.83;97608.15;110360;1267;22007;-80
2023/01/17 07:40:25;;;;;;;14.60;11.50;;;;;;;2.23;74.90;97609.11;110518;1267;22439;-79
2023/01/17 07:43:12;;;;;;;14.70;12.40;;;;;;;2.26;74.88;97612.90;109619;1273;22002;-80
2023/01/17 07:45:49;;;;;;;15.50;12.90;;;;;;;2.28;74.64;97620.84;109563;1269;23057;-80
2023/01/17 07:48:20;;;;;;;25.70;19.60;;;;;;;2.31;74.57;97625.36;110068;1263;21993;-79
2023/01/17 07:50:56;;;;;;;23.70;18.30;;;;;;;2.34;74.56;97630.20;110396;1264;21943;-77
2023/01/17 07:53:29;;;;;;;21.00;16.60;;;;;;;2.38;74.59;97627.80;110546;1263;22006;-77
2023/01/17 07:56:06;;;;;;;31.60;19.40;;;;;;;2.41;74.40;97627.98;110413;1264;21984;-77
2023/01/17 07:58:35;;;;;;;29.80;20.50;;;;;;;2.42;74.20;97634.80;110436;1263;22377;-76
2023/01/17 08:01:13;;;;;;;31.60;24.50;;;;;;;2.41;74.19;97639.13;110698;1257;21963;-76
2023/01/17 08:03:42;;;;;;;22.20;19.10;;;;;;;2.41;74.01;97642.38;111314;1254;21968;-78
2023/01/17 08:06:24;;;;;;;14.30;12.80;;;;;;;2.42;74.05;97639.07;110876;1257;22127;-77
2023/01/17 08:08:57;;;;;;;17.10;13.60;;;;;;;2.45;73.97;97639.95;110922;1257;24352;-78
2023/01/17 08:11:25;;;;;;;20.40;14.20;;;;;;;2.48;74.00;97638.99;110484;1262;23113;-78
2023/01/17 08:13:59;;;;;;;15.90;12.90;;;;;;;2.51;73.88;97635.21;110679;1262;22303;-77
2023/01/17 08:16:28;;;;;;;12.70;11.40;;;;;;;2.54;73.76;97631.63;110460;1265;23048;-78
2023/01/17 08:18:56;;;;;;;14.00;12.50;;;;;;;2.58;73.69;97634.70;110342;1265;22744;-78
2023/01/17 08:21:24;;;;;;;16.60;12.60;;;;;;;2.63;73.64;97638.59;110140;1265;21988;-77
2023/01/17 08:23:51;;;;;;;15.40;12.90;;;;;;;2.69;73.71;97639.65;110363;1265;21990;-77
2023/01/17 08:26:20;;;;;;;30.20;22.90;;;;;;;2.76;73.74;97635.36;110586;1265;21988;-76
2023/01/17 08:28:59;;;;;;;21.60;17.70;;;;;;;2.84;73.65;97638.61;110110;1261;22068;-77
2023/01/17 08:31:32;;;;;;;20.80;16.70;;;;;;;2.92;73.59;97646.26;110668;1261;23760;-77
2023/01/17 08:34:00;;;;;;;20.70;17.90;;;;;;;2.97;73.32;97649.98;110797;1257;21969;-77
2023/01/17 08:36:29;;;;;;;21.90;19.00;;;;;;;3.01;73.13;97647.34;110816;1257;22171;-77
2023/01/17 08:38:57;;;;;;;19.30;17.20;;;;;;;3.04;72.78;97648.08;110730;1257;24291;-79
2023/01/17 08:41:26;;;;;;;23.80;19.50;;;;;;;3.06;72.70;97651.56;111050;1257;23061;-77
2023/01/17 08:43:54;;;;;;;19.20;15.70;;;;;;;3.09;72.59;97655.02;110867;1257;22162;-77
2023/01/17 08:46:22;;;;;;;19.30;17.30;;;;;;;3.08;72.50;97656.10;110978;1257;21965;-77
2023/01/17 08:48:58;;;;;;;20.90;17.50;;;;;;;3.12;72.50;97659.00;110675;1257;22714;-74
2023/01/17 08:51:27;;;;;;;28.50;23.50;;;;;;;3.14;72.39;97659.41;110788;1257;21966;-77
2023/01/17 08:53:56;;;;;;;21.70;19.50;;;;;;;3.16;72.22;97665.35;110801;1257;22027;-76
2023/01/17 08:56:24;;;;;;;22.00;19.70;;;;;;;3.16;71.99;97665.70;110967;1257;22080;-77
2023/01/17 08:58:52;;;;;;;26.70;23.70;;;;;;;3.17;72.10;97668.88;110983;1257;23613;-76
2023/01/17 09:01:20;;;;;;;38.20;32.00;;;;;;;3.21;72.15;97672.98;110905;1257;21989;-77
2023/01/17 09:03:50;;;;;;;38.60;34.30;;;;;;;3.27;72.10;97673.71;110937;1257;23043;-76
2023/01/17 09:06:17;;;;;;;31.10;27.70;;;;;;;3.36;72.16;97676.54;110844;1257;22429;-76
2023/01/17 09:08:46;;;;;;;28.70;23.40;;;;;;;3.41;71.88;97679.15;110880;1257;24422;-76
2023/01/17 09:11:16;;;;;;;26.00;23.50;;;;;;;3.48;72.01;97682.60;110852;1257;22060;-77
2023/01/17 09:13:44;;;;;;;21.70;19.50;;;;;;;3.62;72.32;97683.27;111232;1257;23689;-77
2023/01/17 09:16:12;;;;;;;25.10;19.80;;;;;;;3.75;72.13;97686.56;110831;1257;22015;-77
2023/01/17 09:18:40;;;;;;;22.40;19.90;;;;;;;3.81;71.74;97691.75;110881;1257;23699;-75
2023/01/17 09:21:15;;;;;;;26.30;20.50;;;;;;;3.85;71.44;97698.91;110671;1257;24099;-78
2023/01/17 09:23:43;;;;;;;25.70;20.50;;;;;;;3.88;71.13;97704.76;110921;1258;21965;-77
2023/01/17 09:26:25;;;;;;;34.10;24.50;;;;;;;3.89;70.71;97703.17;110809;1258;23599;-77
2023/01/17 09:28:54;;;;;;;37.10;25.30;;;;;;;3.90;70.69;97703.45;110841;1258;23616;-76
2023/01/17 09:31:23;;;;;;;34.80;26.30;;;;;;;3.96;70.74;97706.27;110885;1258;22151;-77
2023/01/17 09:33:53;;;;;;;33.90;25.90;;;;;;;4.06;70.92;97704.86;110860;1258;21967;-77
2023/01/17 09:36:22;;;;;;;29.80;23.30;;;;;;;4.17;70.50;97705.67;111054;1258;21997;-76
2023/01/17 09:38:56;;;;;;;32.00;21.50;;;;;;;4.24;70.45;97707.66;110467;1262;21963;-78
2023/01/17 09:41:36;;;;;;;31.30;23.70;;;;;;;4.36;70.29;97709.77;110601;1262;21984;-76
2023/01/17 09:44:19;;;;;;;30.20;24.40;;;;;;;4.48;70.23;97713.24;110445;1262;23593;-78
2023/01/17 09:46:51;;;;;;;29.30;22.30;;;;;;;4.60;69.67;97714.67;110690;1260;23718;-79
2023/01/17 09:49:43;;;;;;;32.50;26.00;;;;;;;4.74;69.79;97711.83;109301;1263;1566304;-77
2023/01/17 09:52:19;;;;;;;29.30;22.30;;;;;;;4.94;69.94;97713.98;110771;1262;21958;-78
2023/01/17 09:54:49;;;;;;;34.40;24.10;;;;;;;5.14;69.51;97710.27;110803;1249;22029;-80
2023/01/17 09:57:58;;;;;;;30.50;22.60;;;;;;;5.27;68.68;97710.70;110655;1262;22988;-79
2023/01/17 10:00:34;;;;;;;33.30;21.20;;;;;;;5.40;68.46;97713.71;110594;1260;21969;-77
2023/01/17 10:03:48;;;;;;;20.70;15.30;;;;;;;5.52;67.71;97715.47;110820;1257;21986;-77
2023/01/17 10:06:50;;;;;;;29.20;20.20;;;;;;;5.60;67.44;97715.51;110909;1257;24382;-77
2023/01/17 10:09:45;;;;;;;42.00;29.00;;;;;;;5.75;67.21;97714.08;110811;1257;22036;-78
2023/01/17 10:12:32;;;;;;;38.10;28.10;;;;;;;5.91;66.87;97714.54;110506;1252;22007;-78
2023/01/17 10:15:23;;;;;;;30.30;21.30;;;;;;;6.07;66.48;97715.46;110300;1264;21966;-79
2023/01/17 10:17:56;;;;;;;22.90;16.50;;;;;;;6.30;66.16;97718.01;110317;1264;23061;-78
2023/01/17 10:20:51;;;;;;;25.10;16.80;;;;;;;6.54;65.77;97717.86;110504;1264;23586;-78
2023/01/17 10:23:31;;;;;;;18.90;15.10;;;;;;;6.85;65.26;97718.14;110490;1261;22040;-78
2023/01/17 10:26:21;;;;;;;24.40;15.80;;;;;;;7.03;64.43;97712.33;109853;1269;23698;-77
2023/01/17 10:28:52;;;;;;;20.20;15.30;;;;;;;7.17;64.14;97708.30;109767;1270;21995;-78
2023/01/17 10:31:26;;;;;;;21.90;14.40;;;;;;;7.32;63.33;97709.52;110156;1265;23504;-78
2023/01/17 10:34:05;;;;;;;17.70;12.70;;;;;;;7.44;62.97;97709.80;110356;1265;23696;-78
2023/01/17 10:36:45;;;;;;;19.70;11.40;;;;;;;7.62;62.93;97713.81;110300;1264;23079;-79
2023/01/17 10:39:28;;;;;;;16.40;12.60;;;;;;;7.85;62.86;97714.63;110681;1263;21992;-79
2023/01/17 10:42:05;;;;;;;15.70;10.90;;;;;;;8.13;62.55;97717.20;110338;1263;21975;-79
2023/01/17 10:45:03;;;;;;;8.90;7.10;;;;;;;8.34;61.52;97721.27;110902;1257;21992;-79
2023/01/17 10:47:36;;;;;;;8.60;7.30;;;;;;;8.40;59.61;97718.99;111088;1254;22966;-78
2023/01/17 10:50:04;;;;;;;13.00;6.40;;;;;;;8.42;58.39;97721.45;110902;1257;21992;-79
2023/01/17 10:53:15;;;;;;;8.80;6.40;;;;;;;8.50;58.46;97726.45;110954;1257;23091;-78
2023/01/17 10:55:52;;;;;;;6.90;6.10;;;;;;;8.72;58.26;97723.80;111201;1257;22555;-77
2023/01/17 10:58:20;;;;;;;9.10;6.60;;;;;;;9.09;58.24;97725.69;111103;1257;21966;-79
2023/01/17 11:01:00;;;;;;;8.10;6.10;;;;;;;9.41;56.91;97724.38;111062;1253;23693;-78
2023/01/17 11:03:28;;;;;;;9.90;6.50;;;;;;;9.42;55.25;97720.27;111125;1257;23597;-78
2023/01/17 11:06:21;;;;;;;7.50;5.80;;;;;;;9.37;54.62;97717.84;110977;1257;23732;-80
2023/01/17 11:08:58;;;;;;;7.90;6.00;;;;;;;9.71;56.47;97715.83;110670;1262;22528;-79
2023/01/17 11:11:32;;;;;;;5.70;4.60;;;;;;;10.84;58.01;97713.42;110586;1263;21972;-78
2023/01/17 11:14:14;;;;;;;7.20;5.10;;;;;;;12.10;55.88;97713.45;110544;1263;23715;-80
2023/01/17 11:16:42;;;;;;;7.30;4.60;;;;;;;13.38;54.19;97712.13;110518;1263;21973;-80
2023/01/17 11:19:29;;;;;;;10.60;6.00;;;;;;;14.51;51.45;97704.55;110670;1262;22175;-79
2023/01/17 11:22:03;;;;;;;8.00;6.70;;;;;;;15.36;47.40;97698.36;110595;1260;21973;-80
2023/01/17 11:24:37;;;;;;;9.10;7.70;;;;;;;15.27;42.79;97696.71;110525;1262;23712;-80
2023/01/17 11:27:21;;;;;;;13.90;11.60;;;;;;;14.57;41.32;97699.77;110781;1258;22288;-80
2023/01/17 11:30:06;;;;;;;26.00;17.50;;;;;;;13.84;41.47;97703.52;111280;1257;21982;-79
2023/01/17 11:32:34;;;;;;;11.70;7.70;;;;;;;13.27;42.21;97710.68;110713;1257;21969;-79
2023/01/17 11:35:24;;;;;;;11.90;6.50;;;;;;;12.97;42.84;97713.57;110695;1259;23707;-78
2023/01/17 11:38:10;;;;;;;8.50;5.60;;;;;;;12.48;42.94;97714.35;111007;1258;21970;-78
2023/01/17 11:40:48;;;;;;;7.70;5.60;;;;;;;12.01;43.37;97715.39;110991;1258;21973;-80
2023/01/17 11:43:26;;;;;;;9.40;6.50;;;;;;;11.55;43.80;97716.86;110883;1260;21968;-80
2023/01/17 11:46:16;;;;;;;10.30;7.70;;;;;;;11.02;44.18;97714.44;110551;1262;21997;-78
2023/01/17 11:48:59;;;;;;;8.70;6.60;;;;;;;10.45;44.88;97714.14;110576;1261;21977;-78
2023/01/17 11:51:55;;;;;;;13.60;10.90;;;;;;;9.88;45.71;97708.44;110595;1263;22329;-79
2023/01/17 11:54:41;;;;;;;12.00;7.50;;;;;;;9.42;46.72;97708.30;110521;1263;23169;-78
2023/01/17 11:57:31;;;;;;;11.10;8.40;;;;;;;9.06;47.47;97711.80;110572;1263;22041;-79
2023/01/17 12:00:23;;;;;;;10.40;7.10;;;;;;;8.73;48.00;97709.59;110789;1263;23727;-79
2023/01/17 12:03:49;;;;;;;11.10;8.10;;;;;;;8.50;48.78;97707.37;110979;1257;23028;-78
2023/01/17 12:06:32;;;;;;;9.40;7.10;;;;;;;8.25;49.50;97710.67;110792;1264;21981;-78
2023/01/17 12:09:29;;;;;;;9.30;6.80;;;;;;;8.09;49.88;97715.96;110551;1264;21956;-78
2023/01/17 12:15:58;;;;;;;13.80;8.40;;;;;;;7.87;50.90;97723.02;109105;1275;23003;-79
2023/01/17 12:18:59;;;;;;;11.10;7.00;;;;;;;7.85;51.02;97729.89;109239;1276;23683;-79
2023/01/17 12:22:04;;;;;;;12.50;9.00;;;;;;;7.87;51.42;97726.84;108882;1282;22103;-79
2023/01/17 12:25:00;;;;;;;21.50;14.50;;;;;;;7.86;51.37;97727.39;108237;1289;22052;-80
2023/01/17 12:27:40;;;;;;;13.40;9.30;;;;;;;7.79;51.26;97722.69;108350;1289;22509;-79
2023/01/17 12:30:50;;;;;;;7.40;5.70;;;;;;;7.67;51.24;97717.96;108501;1289;23071;-81
2023/01/17 12:33:49;;;;;;;10.60;7.50;;;;;;;7.57;51.63;97712.73;108647;1283;23480;-79
2023/01/17 12:36:29;;;;;;;8.30;6.10;;;;;;;7.47;51.71;97711.88;108607;1286;22004;-79
2023/01/17 12:39:18;;;;;;;10.50;6.90;;;;;;;7.36;51.88;97709.11;108368;1291;22008;-80
2023/01/17 12:42:33;;;;;;;11.00;7.40;;;;;;;7.31;52.22;97708.77;108577;1286;22092;-80
2023/01/17 12:45:20;;;;;;;13.30;8.00;;;;;;;7.23;52.39;97709.79;108840;1283;22003;-80
2023/01/17 12:47:55;;;;;;;20.00;10.80;;;;;;;7.23;52.47;97706.71;108833;1280;22035;-79
2023/01/17 12:51:04;;;;;;;13.20;9.40;;;;;;;7.25;52.73;97705.87;108693;1286;22056;-79
2023/01/17 12:54:09;;;;;;;11.90;8.60;;;;;;;7.23;52.79;97703.92;108775;1280;22576;-79
2023/01/17 12:56:51;;;;;;;17.40;11.10;;;;;;;7.21;52.88;97704.94;108866;1278;22005;-79
2023/01/17 12:59:39;;;;;;;15.90;13.00;;;;;;;7.16;52.87;97703.73;109507;1273;22369;-77
2023/01/17 13:02:57;;;;;;;24.10;13.80;;;;;;;7.09;52.90;97710.55;109888;1267;23663;-79
2023/01/17 13:05:40;;;;;;;13.90;9.80;;;;;;;7.00;53.06;97713.53;109616;1274;22478;-79
2023/01/17 13:08:37;;;;;;;18.40;14.20;;;;;;;6.99;53.29;97711.23;109639;1270;22005;-79
2023/01/17 13:11:34;;;;;;;25.00;18.30;;;;;;;7.01;53.65;97710.39;109695;1272;22007;-82
2023/01/17 13:14:07;;;;;;;14.70;11.00;;;;;;;7.07;53.59;97712.77;110137;1265;22546;-82
2023/01/17 13:17:10;;;;;;;18.00;11.00;;;;;;;7.11;53.49;97711.96;110500;1262;23633;-81
2023/01/17 13:20:30;;;;;;;11.00;8.60;;;;;;;7.12;53.38;97710.86;110891;1264;21984;-82
2023/01/17 13:23:52;;;;;;;12.10;7.20;;;;;;;7.10;53.03;97712.23;109548;1276;21996;-81